Time;durP1;ratioP1;P1;durP2;ratioP2;P2;SDS_P1;SDS_P2;PMS_P1;PMS_P2;Temp;Humidity;BMP_temperature;BMP_pressure;BME280_temperature;BME280_humidity;BME280_pressure;Samples;Min_cycle;Max_cycle;Signal;HPM_P1;HPM_P2
2021/12/17 00:01:13;;;;;;;26.95;7.20;;;9.30;99.90;;;;;;5072295;28;20033;-43
2021/12/17 00:03:45;;;;;;;22.08;8.32;;;9.30;99.90;;;;;;5072935;28;20031;-44
2021/12/17 00:06:19;;;;;;;20.77;7.47;;;9.30;99.90;;;;;;5072798;28;20025;-43
2021/12/17 00:08:48;;;;;;;19.65;8.40;;;9.30;99.90;;;;;;5072339;28;20107;-43
2021/12/17 00:11:14;;;;;;;23.42;7.43;;;9.30;99.90;;;;;;5072607;28;20387;-43
2021/12/17 00:13:42;;;;;;;23.42;9.13;;;9.30;99.90;;;;;;5072738;28;20028;-46
2021/12/17 00:16:15;;;;;;;23.65;7.22;;;9.30;99.90;;;;;;5079982;28;20104;-44
2021/12/17 00:49:04;;;;;;;24.90;8.30;;;9.20;99.90;;;;;;5096724;28;20050;-44
2021/12/17 00:54:19;;;;;;;22.77;8.68;;;9.20;99.90;;;;;;5096212;28;20043;-43
2021/12/17 00:56:46;;;;;;;23.50;7.43;;;9.20;99.90;;;;;;5096414;28;20075;-43
2021/12/17 00:59:12;;;;;;;26.10;7.57;;;9.20;99.90;;;;;;5095591;28;20043;-43
2021/12/17 01:01:38;;;;;;;22.75;7.45;;;9.20;99.90;;;;;;5096275;28;20024;-44
2021/12/17 01:04:04;;;;;;;24.75;9.15;;;9.20;99.90;;;;;;5095666;28;20130;-44
2021/12/17 01:06:29;;;;;;;27.48;9.07;;;9.20;99.90;;;;;;5096090;28;20043;-44
2021/12/17 01:08:55;;;;;;;24.88;7.93;;;9.20;99.90;;;;;;5096007;28;20016;-43
2021/12/17 01:11:21;;;;;;;22.95;7.53;;;9.20;99.90;;;;;;5095470;28;20024;-43
2021/12/17 01:13:48;;;;;;;29.98;9.55;;;9.20;99.90;;;;;;5095766;28;20032;-43
2021/12/17 01:16:14;;;;;;;22.92;8.88;;;9.20;99.90;;;;;;5091784;28;20024;-44
2021/12/17 01:18:52;;;;;;;23.27;7.63;;;9.20;99.90;;;;;;5095390;28;20021;-44
2021/12/17 01:24:08;;;;;;;22.55;8.48;;;9.20;99.90;;;;;;5095894;28;20032;-45
2021/12/17 01:42:49;;;;;;;25.15;7.13;;;9.20;99.90;;;;;;5095714;28;20070;-44
2021/12/17 01:45:15;;;;;;;21.27;7.57;;;9.20;99.90;;;;;;5088324;28;20398;-44
2021/12/17 01:47:41;;;;;;;21.45;6.72;;;9.20;99.90;;;;;;5074585;28;20021;-43
2021/12/17 02:00:57;;;;;;;20.20;7.00;;;9.20;99.90;;;;;;5074136;28;20074;-42
2021/12/17 02:03:24;;;;;;;20.15;7.32;;;9.20;99.90;;;;;;5074663;28;20530;-45
2021/12/17 02:05:50;;;;;;;18.98;6.18;;;9.20;99.90;;;;;;5074619;28;20096;-43
2021/12/17 02:08:16;;;;;;;22.35;6.57;;;9.30;99.90;;;;;;5074068;28;20128;-43
2021/12/17 02:19:31;;;;;;;19.15;6.00;;;9.30;99.90;;;;;;5036643;28;20146;-43
2021/12/17 02:19:43;;;;;;;21.52;6.63;;;9.30;99.90;;;;;;5088358;28;20144;-45
2021/12/17 02:30:34;;;;;;;18.88;6.78;;;9.20;99.90;;;;;;5094156;28;20158;-43
2021/12/17 02:32:58;;;;;;;15.70;5.75;;;9.20;99.90;;;;;;5094098;28;20092;-45
2021/12/17 02:35:39;;;;;;;15.65;5.63;;;9.30;99.90;;;;;;5093820;28;20107;-44
2021/12/17 02:38:06;;;;;;;17.90;5.63;;;9.20;99.90;;;;;;5094169;28;20057;-43
2021/12/17 02:45:48;;;;;;;19.10;6.75;;;9.30;99.90;;;;;;5083466;28;20044;-44
2021/12/17 02:48:17;;;;;;;16.88;6.93;;;9.30;99.90;;;;;;5073792;28;20032;-44
2021/12/17 02:50:43;;;;;;;;;;;9.30;99.90;;;;;;5073484;28;20037;-44
2021/12/17 02:53:10;;;;;;;11.77;4.40;;;9.20;99.90;;;;;;5073661;28;19947;-44
2021/12/17 02:55:45;;;;;;;18.42;6.38;;;9.20;99.90;;;;;;5074722;28;20475;-42
2021/12/17 02:58:11;;;;;;;22.30;5.25;;;9.30;99.90;;;;;;5073070;28;20154;-43
2021/12/17 03:00:38;;;;;;;17.77;5.70;;;9.30;99.90;;;;;;5073474;28;20504;-43
2021/12/17 03:03:06;;;;;;;16.98;5.55;;;9.30;99.90;;;;;;5073568;28;20043;-43
2021/12/17 03:05:33;;;;;;;19.08;6.53;;;9.30;99.90;;;;;;5073051;28;20162;-43
2021/12/17 03:08:00;;;;;;;14.55;6.22;;;9.30;99.90;;;;;;5073508;28;20032;-44
2021/12/17 03:10:26;;;;;;;15.40;5.85;;;9.30;99.90;;;;;;5073171;28;20017;-44
2021/12/17 03:12:57;;;;;;;18.42;5.40;;;9.30;99.90;;;;;;5073364;28;20021;-43
2021/12/17 03:25:53;;;;;;;14.57;5.45;;;9.30;99.90;;;;;;5093073;28;20027;-44
2021/12/17 03:28:18;;;;;;;10.93;4.72;;;9.30;99.90;;;;;;5093449;28;20078;-43
2021/12/17 03:30:45;;;;;;;13.63;4.93;;;9.30;99.90;;;;;;5093520;28;20052;-43
2021/12/17 03:33:11;;;;;;;20.55;5.05;;;9.30;99.90;;;;;;5092669;28;20125;-44
2021/12/17 03:35:37;;;;;;;12.48;4.38;;;9.40;99.90;;;;;;5093297;28;20039;-44
2021/12/17 03:38:02;;;;;;;13.88;5.10;;;9.30;99.90;;;;;;5093289;28;20016;-44
2021/12/17 03:40:31;;;;;;;11.77;4.55;;;9.30;99.90;;;;;;5092838;28;20028;-44
2021/12/17 03:43:04;;;;;;;15.57;4.93;;;9.30;99.90;;;;;;5093184;28;20024;-44
2021/12/17 03:45:30;;;;;;;13.93;4.75;;;9.30;99.90;;;;;;5081112;28;20043;-44
2021/12/17 03:47:57;;;;;;;15.15;5.20;;;9.30;99.90;;;;;;5072409;28;20032;-44
2021/12/17 03:50:23;;;;;;;15.43;4.88;;;9.30;99.90;;;;;;5072728;28;20033;-43
2021/12/17 03:52:49;;;;;;;14.98;4.55;;;9.30;99.90;;;;;;5075178;28;20046;-43
2021/12/17 03:55:14;;;;;;;13.00;4.63;;;9.20;99.90;;;;;;5092676;28;20036;-45
2021/12/17 03:57:40;;;;;;;14.98;5.78;;;9.30;99.90;;;;;;5093152;28;20030;-43
2021/12/17 04:00:09;;;;;;;10.85;4.78;;;9.20;99.90;;;;;;5092228;28;20419;-44
2021/12/17 04:02:34;;;;;;;;;;;9.20;99.90;;;;;;5093458;28;20016;-43
2021/12/17 04:05:00;;;;;;;10.98;3.88;;;9.20;99.90;;;;;;5093016;28;19910;-44
2021/12/17 04:07:26;;;;;;;12.35;4.53;;;9.20;99.90;;;;;;5092431;28;20028;-45
2021/12/17 04:09:52;;;;;;;11.23;4.82;;;9.20;99.90;;;;;;5093024;28;20100;-43
2021/12/17 04:12:20;;;;;;;11.40;3.83;;;9.20;99.90;;;;;;5092755;28;20020;-43
2021/12/17 04:14:48;;;;;;;10.18;4.78;;;9.20;99.90;;;;;;5086293;28;20052;-44
2021/12/17 04:17:24;;;;;;;10.10;4.05;;;9.30;99.90;;;;;;5072627;28;20024;-44
2021/12/17 04:19:49;;;;;;;11.68;4.03;;;9.20;99.90;;;;;;5072672;28;20090;-44
2021/12/17 04:22:15;;;;;;;9.50;3.83;;;9.20;99.90;;;;;;5072167;28;20531;-44
2021/12/17 04:24:41;;;;;;;9.68;4.57;;;9.20;99.90;;;;;;5072202;28;20028;-44
2021/12/17 04:27:07;;;;;;;9.15;3.28;;;9.20;99.90;;;;;;5072600;28;20031;-43
2021/12/17 04:29:33;;;;;;;7.80;3.67;;;9.20;99.90;;;;;;5071953;28;20025;-43
2021/12/17 04:31:59;;;;;;;13.88;4.85;;;9.20;99.90;;;;;;5072619;28;20032;-43
2021/12/17 04:34:25;;;;;;;10.63;4.20;;;9.20;99.90;;;;;;5072426;28;20056;-45
2021/12/17 04:36:52;;;;;;;14.23;4.47;;;9.10;99.90;;;;;;5072037;28;20478;-45
2021/12/17 04:39:20;;;;;;;9.38;3.97;;;9.10;99.90;;;;;;5072299;28;20379;-43
2021/12/17 04:44:17;;;;;;;9.57;4.10;;;9.10;99.90;;;;;;5071684;28;20033;-45
2021/12/17 04:46:54;;;;;;;13.52;3.97;;;9.10;99.90;;;;;;5072508;28;20115;-45
2021/12/17 04:57:35;;;;;;;8.57;3.30;;;9.00;99.90;;;;;;5072180;28;20090;-44
2021/12/17 05:00:10;;;;;;;12.88;3.65;;;9.00;99.90;;;;;;5072072;28;20098;-44
2021/12/17 05:02:41;;;;;;;10.10;4.30;;;9.00;99.90;;;;;;5072388;28;20041;-44
2021/12/17 05:05:09;;;;;;;11.02;4.57;;;8.90;99.90;;;;;;5071601;28;20036;-44
2021/12/17 05:07:38;;;;;;;8.77;3.63;;;9.00;99.90;;;;;;5075763;28;20016;-43
2021/12/17 05:10:41;;;;;;;10.93;3.85;;;9.00;99.90;;;;;;5075170;28;20267;-44
2021/12/17 05:18:45;;;;;;;11.02;3.35;;;9.00;99.90;;;;;;5095554;28;20039;-44
2021/12/17 05:21:11;;;;;;;10.43;3.40;;;9.00;99.90;;;;;;5095657;28;20028;-43
2021/12/17 05:23:42;;;;;;;7.50;3.20;;;9.00;99.90;;;;;;5095073;28;20032;-45
2021/12/17 05:26:11;;;;;;;7.35;3.03;;;9.00;99.90;;;;;;5095164;28;20138;-44
2021/12/17 05:28:37;;;;;;;6.18;2.83;;;9.00;99.90;;;;;;5095665;28;20355;-43
2021/12/17 05:31:03;;;;;;;10.30;2.67;;;9.00;99.90;;;;;;5095458;28;20027;-43
2021/12/17 05:33:28;;;;;;;7.05;2.88;;;9.00;99.90;;;;;;5095063;28;20091;-45
2021/12/17 05:35:56;;;;;;;7.15;2.90;;;8.90;99.90;;;;;;5079959;28;20479;-44
2021/12/17 05:38:23;;;;;;;4.90;2.53;;;9.00;99.90;;;;;;5074784;28;20024;-45
2021/12/17 05:40:50;;;;;;;7.47;2.80;;;8.90;99.90;;;;;;5075222;28;20043;-43
2021/12/17 05:43:17;;;;;;;9.43;2.55;;;8.90;99.90;;;;;;5075165;28;20052;-44
2021/12/17 05:45:50;;;;;;;6.90;3.20;;;9.00;99.90;;;;;;5074608;28;20479;-44
2021/12/17 05:48:18;;;;;;;7.70;3.28;;;8.90;99.90;;;;;;5074924;28;20026;-43
2021/12/17 05:50:46;;;;;;;6.55;2.95;;;9.00;99.90;;;;;;5074951;28;20036;-44
2021/12/17 05:53:12;;;;;;;7.20;2.70;;;8.90;99.90;;;;;;5074251;28;20067;-43
2021/12/17 05:55:38;;;;;;;9.68;2.95;;;8.90;99.90;;;;;;5089185;28;20051;-43
2021/12/17 05:58:05;;;;;;;8.13;3.20;;;8.90;99.90;;;;;;5094309;28;20024;-43
2021/12/17 06:00:32;;;;;;;10.30;3.35;;;8.90;99.90;;;;;;5093581;28;20101;-43
2021/12/17 06:02:59;;;;;;;6.07;2.45;;;8.90;99.90;;;;;;5094275;28;20035;-42
2021/12/17 06:05:26;;;;;;;6.45;2.88;;;8.80;99.90;;;;;;5093912;28;20451;-44
2021/12/17 06:07:52;;;;;;;7.38;3.10;;;8.80;99.90;;;;;;5094099;28;20577;-43
2021/12/17 06:10:18;;;;;;;6.53;2.70;;;8.90;99.90;;;;;;5094772;28;20107;-45
2021/12/17 06:12:43;;;;;;;8.60;3.00;;;8.90;99.90;;;;;;5094948;28;20146;-43
2021/12/17 06:15:12;;;;;;;10.93;3.50;;;8.80;99.90;;;;;;5094167;28;20070;-43
2021/12/17 06:17:38;;;;;;;11.02;2.80;;;8.80;99.90;;;;;;5094681;28;20061;-43
2021/12/17 06:20:06;;;;;;;10.70;2.92;;;8.80;99.90;;;;;;5094503;28;20020;-44
2021/12/17 06:22:32;;;;;;;9.98;2.95;;;8.80;99.90;;;;;;5094150;28;20028;-44
2021/12/17 06:24:58;;;;;;;5.38;2.28;;;8.90;99.90;;;;;;5085091;28;20028;-43
2021/12/17 06:27:23;;;;;;;6.90;2.85;;;8.80;99.90;;;;;;5073791;28;20028;-44
2021/12/17 06:29:49;;;;;;;6.70;2.63;;;8.80;99.90;;;;;;5074373;28;20019;-43
2021/12/17 06:32:15;;;;;;;7.18;3.38;;;8.80;99.90;;;;;;5074030;28;20017;-45
2021/12/17 06:34:41;;;;;;;5.75;2.42;;;8.90;99.90;;;;;;5074609;28;20082;-43
2021/12/17 06:37:07;;;;;;;7.60;2.88;;;8.80;99.90;;;;;;5073980;28;20020;-44
2021/12/17 06:39:34;;;;;;;4.53;2.35;;;8.80;99.90;;;;;;5074098;28;20021;-43
2021/12/17 06:42:00;;;;;;;9.45;3.53;;;8.80;99.90;;;;;;5073386;28;20021;-44
2021/12/17 06:44:26;;;;;;;5.47;2.30;;;8.80;99.90;;;;;;5073968;28;20025;-44
2021/12/17 07:00:37;;;;;;;6.60;2.97;;;8.80;99.90;;;;;;5088555;28;20047;-43
2021/12/17 07:06:02;;;;;;;6.82;3.25;;;8.80;99.90;;;;;;5090153;28;20069;-44
2021/12/17 07:11:48;;;;;;;14.45;3.45;;;8.90;99.90;;;;;;5090124;28;20046;-44
2021/12/17 07:22:17;;;;;;;7.82;3.50;;;8.80;99.90;;;;;;5089247;28;20107;-43
2021/12/17 07:32:32;;;;;;;5.97;2.67;;;8.80;99.90;;;;;;5090604;28;20036;-43
2021/12/17 07:39:52;;;;;;;7.68;3.42;;;8.90;99.90;;;;;;5091055;28;19938;-44
2021/12/17 07:42:17;;;;;;;6.32;2.83;;;8.90;99.90;;;;;;5091043;28;20024;-42
2021/12/17 07:44:43;;;;;;;6.88;3.20;;;8.90;99.90;;;;;;5088281;28;20019;-44
2021/12/17 07:47:08;;;;;;;10.02;3.63;;;8.90;99.90;;;;;;5090718;28;20024;-44
2021/12/17 07:49:34;;;;;;;6.68;3.38;;;8.90;99.90;;;;;;5089452;28;20012;-44
2021/12/17 07:52:00;;;;;;;8.95;3.60;;;8.90;99.90;;;;;;5090627;28;20351;-45
2021/12/17 07:54:25;;;;;;;7.80;3.22;;;8.90;99.90;;;;;;5090796;28;20411;-44
2021/12/17 07:56:51;;;;;;;10.10;3.78;;;8.90;99.90;;;;;;5090621;28;20145;-44
2021/12/17 07:59:17;;;;;;;7.40;4.03;;;8.90;99.90;;;;;;5090092;28;20055;-45
2021/12/17 08:01:42;;;;;;;10.43;4.05;;;8.90;99.90;;;;;;5091188;28;20016;-43
2021/12/17 08:04:10;;;;;;;15.73;3.70;;;8.90;99.90;;;;;;5090770;28;20027;-43
2021/12/17 08:06:37;;;;;;;5.80;2.88;;;8.90;99.90;;;;;;5090659;28;20016;-43
2021/12/17 08:09:04;;;;;;;10.52;3.70;;;8.90;99.90;;;;;;5091072;28;20104;-44
2021/12/17 08:11:32;;;;;;;7.30;3.35;;;9.00;99.90;;;;;;5090809;28;20098;-43
2021/12/17 08:13:58;;;;;;;6.10;3.22;;;9.00;99.90;;;;;;5090498;28;20035;-43
2021/12/17 08:23:07;;;;;;;10.25;4.20;;;9.00;99.90;;;;;;5090065;28;20024;-43
2021/12/17 08:24:46;;;;;;;13.38;4.68;;;9.00;99.90;;;;;;5091971;28;20047;-43
2021/12/17 08:27:25;;;;;;;12.95;4.22;;;9.00;99.90;;;;;;5090609;28;20040;-43
2021/12/17 08:29:55;;;;;;;8.55;3.60;;;9.00;99.90;;;;;;5092143;28;20528;-44
2021/12/17 08:32:21;;;;;;;12.27;3.35;;;9.00;99.90;;;;;;5090026;28;20030;-43
2021/12/17 08:34:46;;;;;;;12.77;4.70;;;9.00;99.90;;;;;;5080096;28;20033;-44
2021/12/17 08:37:12;;;;;;;9.80;3.60;;;9.00;99.90;;;;;;5091807;28;20391;-43
2021/12/17 08:39:38;;;;;;;9.60;4.45;;;9.00;99.90;;;;;;5085279;28;20031;-44
2021/12/17 08:42:05;;;;;;;10.07;3.60;;;9.00;99.90;;;;;;5094428;28;20016;-43
2021/12/17 08:44:31;;;;;;;11.00;4.03;;;9.00;99.90;;;;;;5095786;28;20489;-43
2021/12/17 08:46:56;;;;;;;10.05;4.15;;;9.00;99.90;;;;;;5079630;28;20032;-43
2021/12/17 08:49:22;;;;;;;8.82;4.40;;;9.10;99.90;;;;;;5074916;28;20520;-44
2021/12/17 08:51:48;;;;;;;11.57;4.40;;;9.10;99.90;;;;;;5075381;28;20021;-42
2021/12/17 08:54:14;;;;;;;12.55;4.72;;;9.00;99.90;;;;;;5075135;28;20029;-43
2021/12/17 08:56:46;;;;;;;9.30;5.07;;;9.10;99.90;;;;;;5074928;28;20020;-44
2021/12/17 08:59:14;;;;;;;12.23;4.45;;;9.10;99.90;;;;;;5074708;28;20048;-43
2021/12/17 09:01:40;;;;;;;13.85;4.50;;;9.10;99.90;;;;;;5075330;28;20135;-44
2021/12/17 09:04:06;;;;;;;10.13;4.22;;;9.10;99.90;;;;;;5087039;28;20032;-47
2021/12/17 09:06:31;;;;;;;11.32;4.25;;;9.20;99.90;;;;;;5075006;28;20027;-43
2021/12/17 09:08:57;;;;;;;8.57;3.83;;;9.20;99.90;;;;;;5082567;28;20029;-43
2021/12/17 09:11:24;;;;;;;11.27;5.07;;;9.20;99.90;;;;;;5086095;28;20050;-44
2021/12/17 09:13:51;;;;;;;10.77;4.75;;;9.30;99.90;;;;;;5090828;28;20035;-43
2021/12/17 09:16:20;;;;;;;10.65;4.43;;;9.30;99.90;;;;;;5093638;28;20035;-44
2021/12/17 09:18:47;;;;;;;10.77;5.47;;;9.30;99.90;;;;;;5093510;28;20020;-44
2021/12/17 09:21:13;;;;;;;9.30;3.63;;;9.30;99.90;;;;;;5093878;28;20031;-43
2021/12/17 09:23:39;;;;;;;11.18;5.00;;;9.30;99.90;;;;;;5092946;28;20032;-43
2021/12/17 09:26:05;;;;;;;13.27;5.47;;;9.30;99.90;;;;;;5094644;28;20538;-43
2021/12/17 09:28:31;;;;;;;11.90;4.65;;;9.40;99.90;;;;;;5094040;28;20016;-44
2021/12/17 09:30:58;;;;;;;9.38;4.65;;;9.40;99.90;;;;;;5087838;28;20035;-44
2021/12/17 09:33:25;;;;;;;12.38;4.10;;;9.40;99.90;;;;;;5073665;28;20047;-44
2021/12/17 09:35:51;;;;;;;12.70;5.13;;;9.50;99.90;;;;;;5074047;28;20111;-43
2021/12/17 09:38:17;;;;;;;10.25;4.47;;;9.50;99.90;;;;;;5073304;28;20127;-44
2021/12/17 09:40:42;;;;;;;13.05;5.28;;;9.50;99.90;;;;;;5073906;28;20027;-43
2021/12/17 09:43:10;;;;;;;11.15;4.60;;;9.50;99.90;;;;;;5073699;28;20101;-43
2021/12/17 09:45:36;;;;;;;11.35;4.85;;;9.50;99.90;;;;;;5073261;28;20016;-44
2021/12/17 09:48:02;;;;;;;9.88;4.40;;;9.60;99.90;;;;;;5073796;28;20495;-44
2021/12/17 09:50:29;;;;;;;10.35;5.30;;;9.60;99.90;;;;;;5073542;28;20378;-45
2021/12/17 09:52:54;;;;;;;12.63;5.25;;;9.60;99.90;;;;;;5072856;28;20031;-43
2021/12/17 09:55:20;;;;;;;12.25;5.82;;;9.60;99.90;;;;;;5073354;28;20024;-43
2021/12/17 09:57:45;;;;;;;15.85;5.47;;;9.60;99.90;;;;;;5073728;28;20028;-43
2021/12/17 10:00:13;;;;;;;11.88;5.00;;;9.70;99.90;;;;;;5072525;28;20381;-44
2021/12/17 10:02:41;;;;;;;13.60;5.68;;;9.70;99.90;;;;;;5092350;28;20086;-46
2021/12/17 10:05:06;;;;;;;10.97;4.80;;;9.70;99.90;;;;;;5093690;28;20052;-44
2021/12/17 10:07:33;;;;;;;9.57;4.78;;;9.80;99.90;;;;;;5093140;28;20109;-43
2021/12/17 10:10:01;;;;;;;11.38;4.93;;;9.80;99.90;;;;;;5093836;28;20432;-43
2021/12/17 10:12:32;;;;;;;11.52;4.95;;;9.80;99.90;;;;;;5092861;28;20034;-44
2021/12/17 10:15:09;;;;;;;10.57;5.00;;;9.80;99.90;;;;;;5093257;28;20039;-44
2021/12/17 10:17:54;;;;;;;13.65;5.07;;;9.90;99.90;;;;;;5093251;28;20028;-43
2021/12/17 10:20:22;;;;;;;10.40;5.35;;;9.90;99.90;;;;;;5090067;28;20035;-44
2021/12/17 10:23:00;;;;;;;10.45;4.95;;;9.80;99.90;;;;;;5073219;28;20095;-44
2021/12/17 10:25:27;;;;;;;11.98;5.32;;;9.80;99.90;;;;;;5072805;28;20056;-45
2021/12/17 10:27:59;;;;;;;10.63;4.68;;;9.80;99.90;;;;;;5072394;28;20065;-44
2021/12/17 10:30:27;;;;;;;13.70;5.00;;;9.90;99.90;;;;;;5072688;28;20159;-43
2021/12/17 10:32:55;;;;;;;10.90;4.65;;;9.80;99.90;;;;;;5073113;28;20074;-44
2021/12/17 10:35:26;;;;;;;10.00;4.93;;;9.90;99.90;;;;;;5071937;28;20035;-44
2021/12/17 10:37:57;;;;;;;12.70;4.88;;;9.90;99.90;;;;;;5072706;28;20024;-45
2021/12/17 10:40:39;;;;;;;10.55;5.15;;;9.80;99.90;;;;;;5076986;28;20081;-43
2021/12/17 10:46:21;;;;;;;10.63;4.10;;;9.80;99.90;;;;;;5092894;28;20031;-43
2021/12/17 10:51:07;;;;;;;10.85;4.63;;;9.90;99.90;;;;;;5092671;28;20506;-45
2021/12/17 10:53:33;;;;;;;8.10;3.83;;;9.90;99.90;;;;;;5092579;28;20031;-46
2021/12/17 10:55:59;;;;;;;11.93;4.70;;;9.90;99.90;;;;;;5091927;28;20095;-45
2021/12/17 10:58:25;;;;;;;9.70;4.25;;;9.90;99.90;;;;;;5092358;28;20035;-44
2021/12/17 11:01:06;;;;;;;9.77;4.70;;;9.90;99.90;;;;;;5092255;28;20063;-44
2021/12/17 11:03:40;;;;;;;9.77;4.53;;;9.90;99.90;;;;;;5091140;28;20032;-44
2021/12/17 11:06:06;;;;;;;10.77;4.50;;;9.90;99.90;;;;;;5092281;28;20024;-44
2021/12/17 11:08:34;;;;;;;6.10;3.53;;;10.00;99.90;;;;;;5091415;28;20077;-43
2021/12/17 11:11:09;;;;;;;9.93;5.90;;;9.90;99.90;;;;;;5091133;28;20102;-43
2021/12/17 11:13:58;;;;;;;11.70;4.95;;;10.00;99.90;;;;;;5089148;28;20058;-45
2021/12/17 11:16:26;;;;;;;7.97;4.00;;;10.00;99.90;;;;;;5089981;28;20475;-45
2021/12/17 11:18:53;;;;;;;11.07;5.10;;;10.00;99.90;;;;;;5091737;28;20023;-44
2021/12/17 11:21:19;;;;;;;9.48;4.50;;;10.00;99.90;;;;;;5089708;28;20442;-44
2021/12/17 11:23:45;;;;;;;8.35;5.00;;;10.00;99.90;;;;;;5090387;28;20519;-44
2021/12/17 11:26:11;;;;;;;9.45;4.53;;;10.00;99.90;;;;;;5091246;28;20095;-43
2021/12/17 11:28:37;;;;;;;8.43;4.20;;;10.10;99.90;;;;;;5091363;28;20142;-43
2021/12/17 11:31:04;;;;;;;12.70;4.43;;;10.10;99.90;;;;;;5090999;28;20012;-43
2021/12/17 11:33:30;;;;;;;13.18;5.10;;;10.10;99.90;;;;;;5091215;28;20024;-45
2021/12/17 11:35:56;;;;;;;10.82;4.57;;;10.20;99.90;;;;;;5091698;28;20381;-44
2021/12/17 11:38:43;;;;;;;9.68;4.00;;;10.20;99.90;;;;;;5090718;28;20008;-44
2021/12/17 11:41:15;;;;;;;10.10;4.70;;;10.20;99.90;;;;;;5090710;28;20051;-43
2021/12/17 11:43:58;;;;;;;12.23;4.75;;;10.30;99.90;;;;;;5091474;28;20020;-43
2021/12/17 11:46:30;;;;;;;12.60;4.75;;;10.30;99.90;;;;;;5089928;28;20020;-44
2021/12/17 11:49:12;;;;;;;8.43;4.32;;;10.40;99.90;;;;;;5088645;28;20095;-44
2021/12/17 11:51:38;;;;;;;9.35;3.72;;;10.40;99.90;;;;;;5088460;28;20118;-44
2021/12/17 11:54:30;;;;;;;11.13;5.13;;;10.40;99.90;;;;;;5091332;28;20036;-45
2021/12/17 11:57:11;;;;;;;10.88;4.85;;;10.50;99.90;;;;;;5082484;28;20039;-44
2021/12/17 11:59:45;;;;;;;9.32;4.25;;;10.50;99.90;;;;;;5090195;28;20040;-44
2021/12/17 12:02:23;;;;;;;11.52;4.45;;;10.50;99.90;;;;;;5091166;28;20015;-43
2021/12/17 12:04:55;;;;;;;9.50;4.10;;;10.50;99.90;;;;;;5089652;28;20509;-44
2021/12/17 12:07:31;;;;;;;8.10;3.75;;;10.50;99.90;;;;;;5087805;28;20024;-44
2021/12/17 12:10:13;;;;;;;8.82;3.72;;;10.50;99.90;;;;;;5092233;28;20061;-44
2021/12/17 12:12:41;;;;;;;8.07;3.45;;;10.50;99.90;;;;;;5091687;28;20032;-43
2021/12/17 12:15:23;;;;;;;6.78;3.22;;;10.50;99.90;;;;;;5090143;28;20042;-44
2021/12/17 12:17:57;;;;;;;7.30;3.33;;;10.60;99.90;;;;;;5076143;28;20111;-44
2021/12/17 12:20:44;;;;;;;7.53;3.70;;;10.50;99.90;;;;;;5074477;28;20028;-45
2021/12/17 12:23:27;;;;;;;5.57;3.33;;;10.60;99.90;;;;;;5088154;28;20032;-44
2021/12/17 12:26:01;;;;;;;8.77;4.20;;;10.50;99.90;;;;;;5093354;28;20150;-44
2021/12/17 12:28:45;;;;;;;8.15;3.88;;;10.50;99.90;;;;;;5112827;28;20020;-47
2021/12/17 12:31:35;;;;;;;7.03;3.97;;;10.50;99.90;;;;;;5099375;28;20020;-44
2021/12/17 12:34:07;;;;;;;7.63;3.28;;;10.50;99.90;;;;;;5093672;28;20505;-45
2021/12/17 12:36:51;;;;;;;6.68;3.25;;;10.50;99.90;;;;;;5094489;28;20028;-44
2021/12/17 12:39:29;;;;;;;6.07;3.70;;;10.50;99.90;;;;;;5094383;28;20401;-45
2021/12/17 12:41:55;;;;;;;6.15;2.95;;;10.50;99.90;;;;;;5093665;28;20039;-45
2021/12/17 12:44:41;;;;;;;8.55;3.65;;;10.40;99.90;;;;;;5093790;28;20099;-44
2021/12/17 12:47:20;;;;;;;6.20;2.90;;;10.40;99.90;;;;;;5082762;28;20383;-43
2021/12/17 12:49:49;;;;;;;6.07;2.88;;;10.40;99.90;;;;;;5094171;28;20585;-43
2021/12/17 12:52:25;;;;;;;5.10;2.53;;;10.40;99.90;;;;;;5093603;28;20043;-43
2021/12/17 12:55:07;;;;;;;6.20;2.90;;;10.40;99.90;;;;;;5093811;28;20032;-44
2021/12/17 12:57:35;;;;;;;5.40;2.60;;;10.40;99.90;;;;;;5094058;28;20035;-43
2021/12/17 13:00:15;;;;;;;4.55;2.50;;;10.40;99.90;;;;;;5093758;28;20518;-43
2021/12/17 13:02:42;;;;;;;6.97;2.97;;;10.50;99.90;;;;;;5093367;28;20498;-45
2021/12/17 13:05:09;;;;;;;4.38;2.83;;;10.50;99.90;;;;;;5094602;28;20056;-44
2021/12/17 13:07:38;;;;;;;6.60;3.28;;;10.50;99.90;;;;;;5094052;28;20016;-43
2021/12/17 13:10:09;;;;;;;4.13;2.67;;;10.40;99.90;;;;;;5091013;28;20081;-43
2021/12/17 13:12:36;;;;;;;6.05;3.20;;;10.40;99.90;;;;;;5073733;28;20517;-43
2021/12/17 13:15:32;;;;;;;5.78;2.28;;;10.40;99.90;;;;;;5091773;28;20471;-44
2021/12/17 13:23:22;;;;;;;4.38;1.75;;;10.50;99.90;;;;;;5091156;28;20028;-44
2021/12/17 13:26:00;;;;;;;3.67;2.03;;;10.50;99.90;;;;;;5094025;28;20027;-43
2021/12/17 13:28:25;;;;;;;2.22;1.60;;;10.50;99.90;;;;;;5092639;28;20032;-44
2021/12/17 13:30:57;;;;;;;4.40;1.80;;;10.40;99.90;;;;;;5093733;28;20027;-44
2021/12/17 13:33:35;;;;;;;4.00;2.15;;;10.40;99.90;;;;;;5087579;28;20025;-44
2021/12/17 13:36:03;;;;;;;5.78;2.75;;;10.40;99.90;;;;;;5091701;28;20016;-45
2021/12/17 13:38:32;;;;;;;3.72;2.20;;;10.40;99.90;;;;;;5086546;28;20088;-44
2021/12/17 13:40:59;;;;;;;2.85;1.60;;;10.40;99.90;;;;;;5086927;28;20091;-43
2021/12/17 13:43:28;;;;;;;3.80;1.75;;;10.40;99.90;;;;;;5092882;28;20028;-44
2021/12/17 13:45:55;;;;;;;2.83;1.60;;;10.40;99.90;;;;;;5091727;28;20020;-43
2021/12/17 13:48:21;;;;;;;3.53;2.00;;;10.40;99.90;;;;;;5093338;28;20020;-44
2021/12/17 13:50:50;;;;;;;4.40;2.08;;;10.40;99.90;;;;;;5091733;28;20486;-42
2021/12/17 13:53:17;;;;;;;3.63;1.95;;;10.40;99.90;;;;;;5091437;28;20099;-43
2021/12/17 13:55:47;;;;;;;2.15;1.50;;;10.40;99.90;;;;;;5094017;28;20039;-45
2021/12/17 13:58:17;;;;;;;4.25;1.40;;;10.40;99.90;;;;;;5089186;28;20028;-44
2021/12/17 14:00:46;;;;;;;2.28;1.35;;;10.40;99.90;;;;;;5084019;28;20047;-43
2021/12/17 14:03:14;;;;;;;4.72;1.23;;;10.40;99.90;;;;;;5088744;28;20024;-43
2021/12/17 14:05:50;;;;;;;2.90;1.40;;;10.40;99.90;;;;;;5084221;28;20487;-46
2021/12/17 14:08:20;;;;;;;2.97;1.00;;;10.30;99.90;;;;;;5091630;28;20016;-46
2021/12/17 14:10:48;;;;;;;1.90;1.40;;;10.30;99.90;;;;;;5092237;28;20134;-46
2021/12/17 14:13:20;;;;;;;3.53;1.40;;;10.30;99.90;;;;;;5091265;28;20024;-43
2021/12/17 14:15:47;;;;;;;2.10;0.95;;;10.30;99.90;;;;;;5095984;28;20128;-43
2021/12/17 14:18:17;;;;;;;2.28;1.00;;;10.20;99.90;;;;;;5087668;28;20024;-44
2021/12/17 14:20:59;;;;;;;1.73;1.15;;;10.20;99.90;;;;;;5081106;28;20059;-45
2021/12/17 14:23:27;;;;;;;3.05;1.23;;;10.20;99.90;;;;;;5077984;28;20041;-46
2021/12/17 14:25:55;;;;;;;1.87;1.30;;;10.20;99.90;;;;;;5089301;28;20028;-44
2021/12/17 14:28:23;;;;;;;2.65;1.35;;;10.20;99.90;;;;;;5090124;28;20035;-45
2021/12/17 14:30:56;;;;;;;3.55;1.45;;;10.20;99.90;;;;;;5085936;28;20016;-44
2021/12/17 14:33:28;;;;;;;3.83;1.30;;;10.20;99.90;;;;;;5088007;28;20616;-44
2021/12/17 14:36:04;;;;;;;4.03;1.45;;;10.20;99.90;;;;;;5091510;28;20064;-44
2021/12/17 14:38:34;;;;;;;2.67;1.70;;;10.20;99.90;;;;;;5091006;28;20043;-43
2021/12/17 14:41:01;;;;;;;3.25;1.70;;;10.20;99.90;;;;;;5091766;28;20024;-43
2021/12/17 14:43:35;;;;;;;2.45;1.17;;;10.10;99.90;;;;;;5091326;28;20455;-44
2021/12/17 14:46:18;;;;;;;1.98;1.20;;;10.10;99.90;;;;;;5082720;28;20055;-44
2021/12/17 14:49:00;;;;;;;2.90;1.10;;;10.10;99.90;;;;;;5089301;28;20158;-44
2021/12/17 15:02:47;;;;;;;2.33;1.42;;;10.10;99.90;;;;;;5087982;28;20478;-44
2021/12/17 15:05:15;;;;;;;4.13;2.15;;;10.10;99.90;;;;;;5091655;28;20028;-44
2021/12/17 15:07:41;;;;;;;3.83;1.80;;;10.10;99.90;;;;;;5091820;28;20020;-44
2021/12/17 15:10:08;;;;;;;4.60;2.00;;;10.10;99.90;;;;;;5091024;28;20021;-44
2021/12/17 15:15:04;;;;;;;2.75;2.00;;;10.10;99.90;;;;;;5090792;28;20093;-44
2021/12/17 15:17:29;;;;;;;3.47;1.80;;;10.10;99.90;;;;;;5082589;28;20024;-44
2021/12/17 15:19:55;;;;;;;5.20;2.30;;;10.00;99.90;;;;;;5085681;28;20440;-44
2021/12/17 15:22:20;;;;;;;3.95;2.17;;;10.00;99.90;;;;;;5090114;28;20032;-43
2021/12/17 15:24:46;;;;;;;4.05;2.35;;;10.00;99.90;;;;;;5091468;28;20062;-44
2021/12/17 15:27:13;;;;;;;3.28;2.10;;;10.00;99.90;;;;;;5090763;28;20031;-44
2021/12/17 15:29:39;;;;;;;4.03;2.40;;;10.00;99.90;;;;;;5090017;28;20028;-44
2021/12/17 15:32:05;;;;;;;3.83;2.15;;;10.00;99.90;;;;;;5086635;28;20479;-46
2021/12/17 15:34:31;;;;;;;4.70;2.35;;;10.00;99.90;;;;;;5091131;28;20028;-45
2021/12/17 15:36:57;;;;;;;3.92;2.00;;;10.00;99.90;;;;;;5090691;28;20459;-44
2021/12/17 15:39:22;;;;;;;3.78;2.38;;;10.00;99.90;;;;;;5091331;28;20020;-44
2021/12/17 15:41:48;;;;;;;5.35;2.20;;;10.00;99.90;;;;;;5091375;28;20027;-44
2021/12/17 15:44:13;;;;;;;5.75;2.10;;;10.00;99.90;;;;;;5089755;28;20031;-44
2021/12/17 15:46:39;;;;;;;3.08;1.92;;;10.00;99.90;;;;;;5090701;28;20069;-44
2021/12/17 15:49:05;;;;;;;5.35;1.92;;;10.00;99.90;;;;;;5090313;28;20055;-43
2021/12/17 15:51:34;;;;;;;3.30;2.13;;;10.00;99.90;;;;;;5084578;28;20039;-44
2021/12/17 15:54:00;;;;;;;5.22;1.90;;;10.00;99.90;;;;;;5090613;28;20039;-44
2021/12/17 15:56:25;;;;;;;4.05;2.38;;;10.00;99.90;;;;;;5088257;28;20028;-45
2021/12/17 15:58:51;;;;;;;3.72;2.30;;;10.00;99.90;;;;;;5083044;28;20509;-44